Time;durP1;ratioP1;P1;durP2;ratioP2;P2;SDS_P1;SDS_P2;PMS_P1;PMS_P2;Temp;Humidity;BMP_temperature;BMP_pressure;BME280_temperature;BME280_humidity;BME280_pressure;Samples;Min_cycle;Max_cycle;Signal;HPM_P1;HPM_P2
2022/01/21 00:01:46;;;;;;;8.33;7.50;;;1.10;99.90;;;;;;5051595;28;20175;-66
2022/01/21 00:04:12;;;;;;;9.33;7.80;;;1.10;99.90;;;;;;5051115;28;20651;-67
2022/01/21 00:06:38;;;;;;;8.93;8.03;;;1.10;99.90;;;;;;5051469;28;20214;-67
2022/01/21 00:09:05;;;;;;;8.87;8.03;;;1.10;99.90;;;;;;5051394;28;20651;-67
2022/01/21 00:11:31;;;;;;;8.57;7.77;;;1.00;99.90;;;;;;5033499;28;20651;-66
2022/01/21 00:13:58;;;;;;;8.23;7.60;;;1.00;99.90;;;;;;5050904;28;20171;-67
2022/01/21 00:16:25;;;;;;;8.83;8.23;;;1.10;99.90;;;;;;5051153;28;20611;-67
2022/01/21 00:19:02;;;;;;;11.53;8.30;;;1.10;99.90;;;;;;5051082;28;20170;-67
2022/01/21 00:32:27;;;;;;;15.70;9.30;;;1.10;99.90;;;;;;5052250;28;20214;-66
2022/01/21 00:34:53;;;;;;;8.70;8.10;;;1.10;99.90;;;;;;5055170;28;20537;-67
2022/01/21 00:37:18;;;;;;;13.63;9.23;;;1.00;99.90;;;;;;5055074;28;20190;-67
2022/01/21 00:39:50;;;;;;;8.53;8.00;;;1.00;99.90;;;;;;5055008;28;20167;-67
2022/01/21 00:44:48;;;;;;;9.67;8.53;;;1.00;99.90;;;;;;5055105;28;20171;-65
2022/01/21 00:47:14;;;;;;;9.30;8.50;;;1.00;99.90;;;;;;5054581;28;20674;-67
2022/01/21 00:49:39;;;;;;;8.80;7.77;;;1.00;99.90;;;;;;5054552;28;20178;-67
2022/01/21 00:52:05;;;;;;;8.80;8.30;;;1.00;99.90;;;;;;5054587;28;20221;-67
2022/01/21 00:54:31;;;;;;;11.00;8.20;;;0.90;99.90;;;;;;5054214;28;20183;-67
2022/01/21 00:56:57;;;;;;;11.10;8.97;;;0.90;99.90;;;;;;5054642;28;20191;-67
2022/01/21 00:59:22;;;;;;;13.17;8.70;;;0.90;99.90;;;;;;5054313;28;20190;-67
2022/01/21 01:01:48;;;;;;;9.80;8.93;;;0.90;99.90;;;;;;5054688;28;20584;-65
2022/01/21 01:04:14;;;;;;;16.80;9.63;;;0.90;99.90;;;;;;5054114;28;20252;-66
2022/01/21 01:06:40;;;;;;;13.07;8.70;;;0.90;99.90;;;;;;5054309;28;20246;-67
2022/01/21 01:09:05;;;;;;;10.03;9.10;;;0.80;99.90;;;;;;5054314;28;20179;-67
2022/01/21 01:22:19;;;;;;;9.10;8.20;;;0.70;99.90;;;;;;5053454;28;20669;-67
2022/01/21 01:30:00;;;;;;;12.63;10.03;;;0.70;99.90;;;;;;5034197;28;20206;-66
2022/01/21 01:32:28;;;;;;;8.30;7.67;;;0.80;99.90;;;;;;5033975;28;20569;-66
2022/01/21 01:34:54;;;;;;;12.80;8.43;;;0.80;99.90;;;;;;5054034;28;20174;-66
2022/01/21 01:50:48;;;;;;;12.93;9.17;;;1.10;99.90;;;;;;5037207;28;20290;-67
2022/01/21 01:53:14;;;;;;;9.30;8.70;;;1.10;99.90;;;;;;5053347;28;20596;-66
2022/01/21 01:55:40;;;;;;;20.53;10.77;;;1.10;99.90;;;;;;5053610;28;20667;-67
2022/01/21 01:58:06;;;;;;;11.30;8.67;;;1.10;99.90;;;;;;5053507;28;20220;-66
2022/01/21 02:00:32;;;;;;;8.73;8.20;;;1.00;99.90;;;;;;5053280;28;20166;-66
2022/01/21 02:03:05;;;;;;;9.00;8.23;;;1.00;99.90;;;;;;5052694;28;20191;-67
2022/01/21 02:05:31;;;;;;;9.17;8.10;;;1.00;99.90;;;;;;5053319;28;20213;-67
2022/01/21 02:07:57;;;;;;;9.87;8.93;;;1.00;99.90;;;;;;5053112;28;20545;-67
2022/01/21 02:10:22;;;;;;;10.17;9.20;;;1.00;99.90;;;;;;5057458;28;20174;-66
2022/01/21 02:12:48;;;;;;;11.33;7.70;;;1.00;99.90;;;;;;5053763;28;20214;-66
2022/01/21 02:15:14;;;;;;;8.93;8.17;;;1.00;99.90;;;;;;5053335;28;20273;-66
2022/01/21 02:22:51;;;;;;;12.23;8.00;;;1.00;99.90;;;;;;5052885;28;20221;-66
2022/01/21 02:25:20;;;;;;;8.60;7.70;;;1.00;99.90;;;;;;5052851;28;20191;-66
2022/01/21 02:27:52;;;;;;;11.30;9.03;;;1.00;99.90;;;;;;5052778;28;20218;-67
2022/01/21 02:30:20;;;;;;;7.57;6.87;;;1.10;99.90;;;;;;5053042;28;20174;-67
2022/01/21 02:32:48;;;;;;;9.67;7.70;;;1.10;99.90;;;;;;5052484;28;20174;-67
2022/01/21 02:35:15;;;;;;;8.00;7.20;;;1.10;99.90;;;;;;5052729;28;20186;-67
2022/01/21 02:37:41;;;;;;;9.80;8.70;;;1.10;99.90;;;;;;5052702;28;20179;-66
2022/01/21 02:40:09;;;;;;;10.67;8.23;;;1.00;99.90;;;;;;5052409;28;20187;-67
2022/01/21 02:42:35;;;;;;;8.03;7.53;;;1.00;99.90;;;;;;5052231;28;20557;-66
2022/01/21 02:45:02;;;;;;;8.03;7.20;;;1.00;99.90;;;;;;5052297;28;20202;-67
2022/01/21 02:47:28;;;;;;;11.13;7.87;;;1.00;99.90;;;;;;5052235;28;20202;-67
2022/01/21 02:49:54;;;;;;;9.00;8.07;;;1.10;99.90;;;;;;5052517;28;20194;-67
2022/01/21 02:52:23;;;;;;;9.60;8.50;;;1.10;99.90;;;;;;5051722;28;20242;-67
2022/01/21 02:54:49;;;;;;;8.67;7.50;;;1.10;99.90;;;;;;5052174;28;20167;-67
2022/01/21 02:57:14;;;;;;;8.63;7.80;;;1.20;99.90;;;;;;5052022;28;20277;-66
2022/01/21 02:59:40;;;;;;;9.03;7.57;;;1.20;99.90;;;;;;5052198;28;20174;-66
2022/01/21 03:02:05;;;;;;;10.53;8.00;;;1.20;99.90;;;;;;5051735;28;20183;-65
2022/01/21 03:05:00;;;;;;;8.13;7.63;;;1.30;99.90;;;;;;5051910;28;20678;-65
2022/01/21 03:07:25;;;;;;;14.43;8.57;;;1.30;99.90;;;;;;5051958;28;20186;-67
2022/01/21 03:09:51;;;;;;;13.27;8.93;;;1.40;99.90;;;;;;5052267;28;20170;-67
2022/01/21 03:12:17;;;;;;;13.37;8.30;;;1.40;99.90;;;;;;5051429;28;20202;-67
2022/01/21 03:14:42;;;;;;;9.03;7.77;;;1.50;99.90;;;;;;5051860;28;20179;-67
2022/01/21 03:17:08;;;;;;;9.67;8.67;;;1.50;99.90;;;;;;5051700;28;20305;-66
2022/01/21 03:19:33;;;;;;;8.27;7.63;;;1.50;99.90;;;;;;5052100;28;20195;-67
2022/01/21 03:22:00;;;;;;;9.40;8.30;;;1.60;99.90;;;;;;5051314;28;20186;-67
2022/01/21 03:24:26;;;;;;;8.77;7.23;;;1.60;99.90;;;;;;5051668;28;20173;-67
2022/01/21 03:26:51;;;;;;;11.07;8.93;;;1.60;99.90;;;;;;5051638;28;20203;-67
2022/01/21 03:29:17;;;;;;;8.20;7.50;;;1.60;99.90;;;;;;5051687;28;20203;-67
2022/01/21 03:31:42;;;;;;;8.20;7.50;;;1.60;99.90;;;;;;5051766;28;20228;-66
2022/01/21 03:34:08;;;;;;;10.97;8.10;;;1.60;99.90;;;;;;5050352;28;20189;-67
2022/01/21 03:36:35;;;;;;;7.87;7.30;;;1.60;99.90;;;;;;5033515;28;20738;-67
2022/01/21 03:39:00;;;;;;;14.97;7.80;;;1.60;99.90;;;;;;5051621;28;20251;-67
2022/01/21 03:41:26;;;;;;;8.70;8.10;;;1.60;99.90;;;;;;5051546;28;20269;-67
2022/01/21 03:43:52;;;;;;;9.17;7.70;;;1.60;99.90;;;;;;5051480;28;20210;-68
2022/01/21 03:46:18;;;;;;;8.67;7.73;;;1.50;99.90;;;;;;5051416;28;20198;-67
2022/01/21 03:48:47;;;;;;;11.07;8.90;;;1.50;99.90;;;;;;5051451;28;20227;-66
2022/01/21 03:51:13;;;;;;;15.23;8.43;;;1.50;99.90;;;;;;5051149;28;20344;-65
2022/01/21 03:53:38;;;;;;;16.20;8.20;;;1.50;99.90;;;;;;5051140;28;20254;-67
2022/01/21 03:56:04;;;;;;;7.93;7.53;;;1.40;99.90;;;;;;5051232;28;20198;-67
2022/01/21 03:58:30;;;;;;;9.23;8.23;;;1.40;99.90;;;;;;5051181;28;20175;-66
2022/01/21 04:00:55;;;;;;;10.40;7.80;;;1.40;99.90;;;;;;5051188;28;20186;-67
2022/01/21 04:03:23;;;;;;;8.90;8.10;;;1.40;99.90;;;;;;5032869;28;20175;-66
2022/01/21 04:05:48;;;;;;;10.17;7.53;;;1.40;99.90;;;;;;5051582;28;20209;-66
2022/01/21 04:08:15;;;;;;;9.53;8.17;;;1.40;99.90;;;;;;5050485;28;20544;-66
2022/01/21 04:10:42;;;;;;;15.23;7.70;;;1.40;99.90;;;;;;5050972;28;20198;-66
2022/01/21 04:13:18;;;;;;;8.47;7.73;;;1.50;99.90;;;;;;5050678;28;20644;-66
2022/01/21 04:15:46;;;;;;;17.27;8.77;;;1.50;99.90;;;;;;5051194;28;20187;-66
2022/01/21 04:18:13;;;;;;;10.47;7.73;;;1.50;99.90;;;;;;5050941;28;20572;-66
2022/01/21 04:20:40;;;;;;;12.03;7.50;;;1.60;99.90;;;;;;5051123;28;20182;-66
2022/01/21 04:23:06;;;;;;;8.70;7.83;;;1.60;99.90;;;;;;5050711;28;20188;-66
2022/01/21 04:25:32;;;;;;;9.83;8.27;;;1.70;99.90;;;;;;5050922;28;20282;-66
2022/01/21 04:27:57;;;;;;;9.00;8.20;;;1.70;99.90;;;;;;5050890;28;20185;-66
2022/01/21 04:30:23;;;;;;;12.87;8.03;;;1.70;99.90;;;;;;5051094;28;20637;-66
2022/01/21 04:32:49;;;;;;;10.03;9.03;;;1.70;99.90;;;;;;5050449;28;20175;-66
2022/01/21 04:35:15;;;;;;;13.67;9.23;;;1.70;99.90;;;;;;5050942;28;20187;-66
2022/01/21 04:37:48;;;;;;;9.50;8.63;;;1.80;99.90;;;;;;5050922;28;20205;-67
2022/01/21 04:40:17;;;;;;;10.13;8.87;;;1.80;99.90;;;;;;5051048;28;20163;-67
2022/01/21 04:48:10;;;;;;;10.47;8.77;;;1.80;99.90;;;;;;5051023;28;20232;-65
2022/01/21 04:50:54;;;;;;;11.63;8.57;;;1.80;99.90;;;;;;5050461;28;20182;-67
2022/01/21 04:53:20;;;;;;;8.90;8.20;;;1.80;99.90;;;;;;5050649;28;20170;-66
2022/01/21 04:55:46;;;;;;;10.93;7.93;;;1.80;99.90;;;;;;5050930;28;20191;-67
2022/01/21 04:58:13;;;;;;;11.57;8.03;;;1.80;99.90;;;;;;5050748;28;20254;-67
2022/01/21 05:00:38;;;;;;;9.43;7.93;;;1.80;99.90;;;;;;5050798;28;20644;-67
2022/01/21 05:03:04;;;;;;;9.30;8.40;;;1.80;99.90;;;;;;5050727;28;20163;-66
2022/01/21 05:05:30;;;;;;;8.53;7.93;;;1.70;99.90;;;;;;5050328;28;20261;-66
2022/01/21 05:07:59;;;;;;;8.80;8.17;;;1.70;99.90;;;;;;5050782;28;20181;-66
2022/01/21 05:10:27;;;;;;;9.57;7.90;;;1.70;99.90;;;;;;5050167;28;20236;-67
2022/01/21 05:12:53;;;;;;;12.37;8.37;;;1.70;99.90;;;;;;5050600;28;20663;-65
2022/01/21 05:15:27;;;;;;;15.83;8.37;;;1.70;99.90;;;;;;5050098;28;20385;-66
2022/01/21 05:17:53;;;;;;;8.03;7.43;;;1.70;99.90;;;;;;5051175;28;20770;-65
2022/01/21 05:20:18;;;;;;;10.10;8.57;;;1.70;99.90;;;;;;5053561;28;20257;-66
2022/01/21 05:22:45;;;;;;;9.73;8.93;;;1.70;99.90;;;;;;5053672;28;20175;-66
2022/01/21 05:25:16;;;;;;;10.37;9.47;;;1.70;99.90;;;;;;5053795;28;20216;-65
2022/01/21 05:27:47;;;;;;;8.63;7.90;;;1.60;99.90;;;;;;5053907;28;20569;-65
2022/01/21 05:30:14;;;;;;;11.00;8.33;;;1.60;99.90;;;;;;5054247;28;20547;-67
2022/01/21 05:32:40;;;;;;;9.77;8.83;;;1.70;99.90;;;;;;5035623;28;20232;-67
2022/01/21 05:35:06;;;;;;;8.47;7.70;;;1.70;99.90;;;;;;5054103;28;20195;-66
2022/01/21 05:37:32;;;;;;;9.57;8.60;;;1.70;99.90;;;;;;5053698;28;20675;-66
2022/01/21 05:39:57;;;;;;;13.33;8.87;;;1.70;99.90;;;;;;5053831;28;20174;-67
2022/01/21 05:42:24;;;;;;;8.40;7.60;;;1.70;99.90;;;;;;5053595;28;20526;-67
2022/01/21 05:47:15;;;;;;;9.80;7.87;;;1.70;99.90;;;;;;5054022;28;20173;-67
2022/01/21 05:49:41;;;;;;;10.57;9.03;;;1.80;99.90;;;;;;5053520;28;20606;-67
2022/01/21 05:52:14;;;;;;;12.60;9.13;;;1.80;99.90;;;;;;5053443;28;20210;-66
2022/01/21 05:54:41;;;;;;;9.80;8.77;;;1.70;99.90;;;;;;5035382;28;20179;-67
2022/01/21 05:57:09;;;;;;;12.97;8.70;;;1.70;99.90;;;;;;5053351;28;20191;-67
2022/01/21 05:59:34;;;;;;;9.37;8.37;;;1.80;99.90;;;;;;5053479;28;20210;-67
2022/01/21 06:02:00;;;;;;;9.17;8.33;;;1.70;99.90;;;;;;5053442;28;20329;-68
2022/01/21 06:04:26;;;;;;;10.50;9.30;;;1.80;99.90;;;;;;5053371;28;20182;-67
2022/01/21 06:06:51;;;;;;;10.40;8.60;;;1.70;99.90;;;;;;5052813;28;20330;-66
2022/01/21 06:09:17;;;;;;;9.87;9.03;;;1.70;99.90;;;;;;5053108;28;20672;-67
2022/01/21 06:11:43;;;;;;;9.30;8.60;;;1.70;99.90;;;;;;5053693;28;20205;-66
2022/01/21 06:14:08;;;;;;;9.13;8.23;;;1.70;99.90;;;;;;5052936;28;20174;-66
2022/01/21 06:16:35;;;;;;;11.80;9.13;;;1.70;99.90;;;;;;5052523;28;20541;-66
2022/01/21 06:19:00;;;;;;;9.20;8.57;;;1.60;99.90;;;;;;5053034;28;20173;-66
2022/01/21 06:21:26;;;;;;;13.20;9.93;;;1.60;99.90;;;;;;5034705;28;20664;-66
2022/01/21 06:23:52;;;;;;;10.07;9.23;;;1.70;99.90;;;;;;5034458;28;20171;-66
2022/01/21 06:26:18;;;;;;;11.10;9.17;;;1.60;99.90;;;;;;5052756;28;20191;-66
2022/01/21 06:28:43;;;;;;;9.53;8.80;;;1.60;99.90;;;;;;5052662;28;20202;-66
2022/01/21 06:31:09;;;;;;;12.43;8.47;;;1.60;99.90;;;;;;5034469;28;20569;-66
2022/01/21 06:33:34;;;;;;;10.40;9.37;;;1.60;99.90;;;;;;5052447;28;20194;-66
2022/01/21 06:36:00;;;;;;;8.90;8.20;;;1.60;99.90;;;;;;5052344;28;20293;-66
2022/01/21 06:38:27;;;;;;;15.83;9.47;;;1.70;99.90;;;;;;5052440;28;20175;-66
2022/01/21 06:40:54;;;;;;;15.63;8.93;;;1.70;99.90;;;;;;5052185;28;20171;-66
2022/01/21 06:43:20;;;;;;;10.40;8.43;;;1.70;99.90;;;;;;5052158;28;20175;-66
2022/01/21 06:45:46;;;;;;;8.87;8.00;;;1.70;99.90;;;;;;5052024;28;20210;-66
2022/01/21 06:48:11;;;;;;;10.40;8.40;;;1.80;99.90;;;;;;5052370;28;20641;-66
2022/01/21 06:50:40;;;;;;;10.37;9.27;;;1.80;99.90;;;;;;5033803;28;20189;-66
2022/01/21 06:53:06;;;;;;;10.13;9.07;;;1.70;99.90;;;;;;5034232;28;20731;-66
2022/01/21 06:55:32;;;;;;;10.10;9.23;;;1.70;99.90;;;;;;5051701;28;20205;-66
2022/01/21 06:57:58;;;;;;;13.67;9.83;;;1.70;99.90;;;;;;5052365;28;20640;-67
2022/01/21 07:00:24;;;;;;;16.00;10.13;;;1.70;99.90;;;;;;5052309;28;20253;-69
2022/01/21 07:02:52;;;;;;;16.27;11.07;;;1.60;99.90;;;;;;5052502;28;20552;-66
2022/01/21 07:05:18;;;;;;;11.03;10.07;;;1.60;99.90;;;;;;5050603;28;20240;-67
2022/01/21 07:07:44;;;;;;;14.40;10.80;;;1.50;99.90;;;;;;5052126;28;20221;-68
2022/01/21 07:10:12;;;;;;;17.63;10.67;;;1.50;99.90;;;;;;5051662;28;20183;-66
2022/01/21 07:12:39;;;;;;;14.87;11.27;;;1.60;99.90;;;;;;5051114;28;20256;-68
2022/01/21 07:15:06;;;;;;;20.43;10.77;;;1.60;99.90;;;;;;5051583;28;20221;-66
2022/01/21 07:17:32;;;;;;;16.20;11.67;;;1.60;99.90;;;;;;5051932;28;20603;-67
2022/01/21 07:19:58;;;;;;;16.67;11.73;;;1.60;99.90;;;;;;5051613;28;20596;-67
2022/01/21 07:22:24;;;;;;;13.77;11.40;;;1.60;99.90;;;;;;5051755;28;20257;-67
2022/01/21 07:24:49;;;;;;;13.53;10.53;;;1.60;99.90;;;;;;5050523;28;20635;-66
2022/01/21 07:27:15;;;;;;;12.43;10.80;;;1.60;99.90;;;;;;5051542;28;20265;-66
2022/01/21 07:29:41;;;;;;;11.57;10.57;;;1.60;99.90;;;;;;5051074;28;20175;-66
2022/01/21 07:32:07;;;;;;;17.47;10.73;;;1.60;99.90;;;;;;5051191;28;20264;-66
2022/01/21 07:34:33;;;;;;;18.97;10.93;;;1.60;99.90;;;;;;5051309;28;20216;-66
2022/01/21 07:36:58;;;;;;;11.77;10.70;;;1.50;99.90;;;;;;5051321;28;20199;-66
2022/01/21 07:39:24;;;;;;;17.20;11.67;;;1.50;99.90;;;;;;5050200;28;20644;-66
2022/01/21 07:41:50;;;;;;;14.43;10.83;;;1.50;99.90;;;;;;5050713;28;20175;-65
2022/01/21 07:44:16;;;;;;;15.93;11.50;;;1.40;99.90;;;;;;5050678;28;20241;-66
2022/01/21 07:46:43;;;;;;;12.50;11.27;;;1.40;99.90;;;;;;5051036;28;20671;-66
2022/01/21 07:49:10;;;;;;;13.03;10.80;;;1.30;99.90;;;;;;5050662;28;20174;-67
2022/01/21 07:51:36;;;;;;;18.57;11.27;;;1.30;99.90;;;;;;5033094;28;20210;-67
2022/01/21 07:54:03;;;;;;;16.93;12.80;;;1.20;99.90;;;;;;5050721;28;20175;-66
2022/01/21 07:56:30;;;;;;;12.50;11.30;;;1.20;99.90;;;;;;5050937;28;20191;-66
2022/01/21 07:58:55;;;;;;;14.23;10.97;;;1.20;99.90;;;;;;5032957;28;20182;-66
2022/01/21 08:01:22;;;;;;;12.00;10.70;;;1.20;99.90;;;;;;5033170;28;20175;-66
2022/01/21 08:03:47;;;;;;;12.50;10.97;;;1.20;99.90;;;;;;5032646;28;20183;-66
2022/01/21 08:06:13;;;;;;;14.50;11.30;;;1.20;99.90;;;;;;5050669;28;20298;-66
2022/01/21 08:08:39;;;;;;;12.80;10.63;;;1.30;99.90;;;;;;5050335;28;20269;-67
2022/01/21 08:11:04;;;;;;;10.77;9.73;;;1.30;99.90;;;;;;5051025;28;20199;-66
2022/01/21 08:13:30;;;;;;;13.23;11.47;;;1.30;99.90;;;;;;5050421;28;20261;-64
2022/01/21 08:15:56;;;;;;;14.90;12.90;;;1.40;99.90;;;;;;5050844;28;20198;-66
2022/01/21 08:18:22;;;;;;;15.10;11.87;;;1.40;99.90;;;;;;5050654;28;20224;-66
2022/01/21 08:20:48;;;;;;;11.90;10.70;;;1.50;99.90;;;;;;5050871;28;20175;-66
2022/01/21 08:23:14;;;;;;;15.17;10.67;;;1.60;99.90;;;;;;5050885;28;20189;-67
2022/01/21 08:25:41;;;;;;;20.33;11.27;;;1.70;99.90;;;;;;5051224;28;20194;-67
2022/01/21 08:28:07;;;;;;;12.47;10.93;;;1.80;99.90;;;;;;5050840;28;20187;-65
2022/01/21 08:30:34;;;;;;;19.33;10.50;;;1.90;99.90;;;;;;5050670;28;20185;-67
2022/01/21 08:33:00;;;;;;;12.70;10.13;;;2.10;99.90;;;;;;5050801;28;20199;-66
2022/01/21 08:35:26;;;;;;;14.93;13.07;;;2.10;99.90;;;;;;5050959;28;20195;-66
2022/01/21 08:37:53;;;;;;;20.10;13.17;;;2.10;99.90;;;;;;5049298;28;20659;-66
2022/01/21 08:40:20;;;;;;;12.70;11.30;;;2.20;99.90;;;;;;5050854;28;20257;-66
2022/01/21 08:42:45;;;;;;;13.73;11.53;;;2.20;99.90;;;;;;5050245;28;20261;-66
2022/01/21 08:45:11;;;;;;;19.10;13.13;;;2.30;99.90;;;;;;5032492;28;20282;-66
2022/01/21 08:47:40;;;;;;;11.43;10.57;;;2.30;99.90;;;;;;5050341;28;20190;-67
2022/01/21 08:50:09;;;;;;;16.07;11.83;;;2.20;99.90;;;;;;5050521;28;20179;-66
2022/01/21 08:52:37;;;;;;;15.90;11.77;;;2.20;99.90;;;;;;5051190;28;20198;-66
2022/01/21 08:55:08;;;;;;;15.00;10.70;;;2.20;99.90;;;;;;5036205;28;20205;-66
2022/01/21 08:57:36;;;;;;;12.80;10.83;;;2.10;99.90;;;;;;5054359;28;20336;-66
2022/01/21 09:00:07;;;;;;;12.63;11.43;;;2.10;99.90;;;;;;5053969;28;20167;-66
2022/01/21 09:02:32;;;;;;;12.60;11.50;;;2.10;99.90;;;;;;5053549;28;20198;-66
2022/01/21 09:04:58;;;;;;;15.13;10.90;;;2.30;99.90;;;;;;5052727;28;20189;-66
2022/01/21 09:07:23;;;;;;;17.67;11.87;;;2.40;99.90;;;;;;5054111;28;20177;-66
2022/01/21 09:09:49;;;;;;;12.87;11.67;;;2.40;99.90;;;;;;5052820;28;20179;-66
2022/01/21 09:12:15;;;;;;;11.90;10.83;;;2.60;99.90;;;;;;5035710;28;20209;-66
2022/01/21 09:14:41;;;;;;;14.93;12.20;;;2.60;99.90;;;;;;5053678;28;20171;-66
2022/01/21 09:17:06;;;;;;;15.20;11.87;;;2.70;99.90;;;;;;5053312;28;20202;-67
2022/01/21 09:19:32;;;;;;;14.07;12.60;;;2.80;99.90;;;;;;5053704;28;20277;-67
2022/01/21 09:22:02;;;;;;;15.63;13.53;;;2.80;99.90;;;;;;5053819;28;20663;-68
2022/01/21 09:24:32;;;;;;;18.63;14.13;;;2.90;99.90;;;;;;5053347;28;20269;-68
2022/01/21 09:26:59;;;;;;;24.53;16.23;;;3.20;99.90;;;;;;5035826;28;20199;-68
2022/01/21 09:29:25;;;;;;;10.60;9.60;;;3.70;99.90;;;;;;5053514;28;20217;-67
2022/01/21 09:31:51;;;;;;;20.57;13.40;;;4.00;99.90;;;;;;5053666;28;20202;-67
2022/01/21 09:34:18;;;;;;;12.10;9.37;;;4.40;99.90;;;;;;5035703;28;20170;-67
2022/01/21 09:36:44;;;;;;;17.43;12.17;;;4.80;99.90;;;;;;5053484;28;20721;-65
2022/01/21 09:39:10;;;;;;;10.17;8.67;;;5.20;99.90;;;;;;5053479;28;20167;-67
2022/01/21 09:41:36;;;;;;;9.93;8.83;;;5.50;99.90;;;;;;5053373;28;20183;-67
2022/01/21 09:44:04;;;;;;;10.97;9.87;;;5.50;99.90;;;;;;5052959;28;20670;-66
2022/01/21 09:46:34;;;;;;;21.73;10.33;;;5.50;99.90;;;;;;5053364;28;20598;-68
2022/01/21 09:49:25;;;;;;;19.03;11.97;;;5.70;99.90;;;;;;5052931;28;20179;-66
2022/01/21 09:52:03;;;;;;;9.70;8.57;;;5.90;99.90;;;;;;5053392;28;20207;-66
2022/01/21 09:54:32;;;;;;;11.47;9.37;;;6.20;99.90;;;;;;5052960;28;20174;-67
2022/01/21 09:56:59;;;;;;;12.73;10.97;;;5.90;99.90;;;;;;5035094;28;20194;-66
2022/01/21 09:59:28;;;;;;;14.07;9.67;;;6.00;99.90;;;;;;5034940;28;20221;-65
2022/01/21 10:02:03;;;;;;;14.17;11.27;;;5.70;99.90;;;;;;5053272;28;20494;-68
2022/01/21 10:04:32;;;;;;;9.20;8.30;;;5.50;99.90;;;;;;5052063;28;20182;-68
2022/01/21 10:07:00;;;;;;;11.00;9.90;;;5.70;99.90;;;;;;5052759;28;20250;-66
2022/01/21 10:09:26;;;;;;;10.00;9.00;;;6.10;99.90;;;;;;5034872;28;20179;-67
2022/01/21 10:11:54;;;;;;;9.03;8.33;;;6.60;99.90;;;;;;5051733;28;20213;-67
2022/01/21 10:14:25;;;;;;;11.53;8.73;;;6.40;99.90;;;;;;5052561;28;20167;-66
2022/01/21 10:16:52;;;;;;;9.30;8.40;;;5.90;99.90;;;;;;5052840;28;20211;-67
2022/01/21 10:19:31;;;;;;;9.73;8.83;;;5.40;99.90;;;;;;5052783;28;20163;-67
2022/01/21 10:22:04;;;;;;;8.90;8.30;;;5.10;99.90;;;;;;5033691;28;20182;-67
2022/01/21 10:24:33;;;;;;;9.07;8.37;;;5.20;99.90;;;;;;5052727;28;20229;-68
2022/01/21 10:27:00;;;;;;;9.43;8.83;;;5.30;99.90;;;;;;5052487;28;20664;-67
2022/01/21 10:29:38;;;;;;;9.57;8.67;;;5.40;99.90;;;;;;5052599;28;20566;-66
2022/01/21 10:32:05;;;;;;;11.27;8.87;;;5.30;99.90;;;;;;5052407;28;20272;-66
2022/01/21 10:34:44;;;;;;;11.17;9.93;;;5.20;99.90;;;;;;5052543;28;20174;-66
2022/01/21 10:37:24;;;;;;;11.07;10.07;;;4.90;99.90;;;;;;5050668;28;20234;-66
2022/01/21 10:40:04;;;;;;;12.17;10.80;;;5.00;99.90;;;;;;5052645;28;20197;-66
2022/01/21 10:42:30;;;;;;;10.67;9.67;;;4.90;99.90;;;;;;5052111;28;20204;-66
2022/01/21 10:44:57;;;;;;;10.60;9.57;;;5.00;99.90;;;;;;5052037;28;20662;-66
2022/01/21 10:47:34;;;;;;;8.90;8.30;;;5.00;99.90;;;;;;5034354;28;20183;-66
2022/01/21 10:50:13;;;;;;;10.23;9.00;;;5.00;99.90;;;;;;5052437;28;20170;-66
2022/01/21 10:52:43;;;;;;;8.80;7.93;;;5.00;99.90;;;;;;5033903;28;20213;-66
2022/01/21 10:55:38;;;;;;;7.90;7.50;;;4.90;99.90;;;;;;5052242;28;20210;-66
2022/01/21 10:58:18;;;;;;;10.03;9.07;;;4.80;99.90;;;;;;5052341;28;20171;-66
2022/01/21 11:01:02;;;;;;;8.43;7.73;;;4.80;99.90;;;;;;5034275;28;20221;-66
2022/01/21 11:03:32;;;;;;;9.27;8.60;;;4.90;99.90;;;;;;5033882;28;20179;-66
2022/01/21 11:06:10;;;;;;;9.77;8.70;;;4.90;99.90;;;;;;5051888;28;20695;-66
2022/01/21 11:08:36;;;;;;;11.00;8.97;;;5.10;99.90;;;;;;5050025;28;20174;-66
2022/01/21 11:11:02;;;;;;;10.13;9.17;;;5.30;99.90;;;;;;5051887;28;20272;-67
2022/01/21 11:13:29;;;;;;;11.83;8.60;;;5.50;99.90;;;;;;5051638;28;20249;-67
2022/01/21 11:16:09;;;;;;;9.60;8.73;;;5.80;99.90;;;;;;5051840;28;20192;-65
2022/01/21 11:18:52;;;;;;;9.33;8.63;;;6.00;99.90;;;;;;5050467;28;20179;-66
2022/01/21 11:21:18;;;;;;;9.73;8.77;;;6.10;99.90;;;;;;5050706;28;20224;-67
2022/01/21 11:23:43;;;;;;;8.73;7.97;;;6.10;99.90;;;;;;5051438;28;20174;-65
2022/01/21 11:26:14;;;;;;;8.67;8.07;;;5.90;99.90;;;;;;5051745;28;20729;-66
2022/01/21 11:28:50;;;;;;;9.57;8.23;;;5.80;99.90;;;;;;5051549;28;20547;-66
2022/01/21 11:31:19;;;;;;;10.83;9.03;;;5.80;99.90;;;;;;5051614;28;20198;-66
2022/01/21 11:33:45;;;;;;;10.20;9.23;;;5.80;99.90;;;;;;5051174;28;20199;-66
2022/01/21 11:36:11;;;;;;;8.60;8.00;;;5.90;99.90;;;;;;5050689;28;20222;-66
2022/01/21 11:38:40;;;;;;;9.70;8.87;;;5.80;99.90;;;;;;5051204;28;20175;-67
2022/01/21 11:41:07;;;;;;;9.57;8.23;;;5.70;99.90;;;;;;5050805;28;20182;-68
2022/01/21 11:43:35;;;;;;;10.73;8.30;;;5.60;99.90;;;;;;5050421;28;20189;-68
2022/01/21 11:46:17;;;;;;;8.93;8.10;;;5.60;99.90;;;;;;5051284;28;20559;-66
2022/01/21 11:48:57;;;;;;;8.20;7.60;;;5.60;99.90;;;;;;5051411;28;20201;-66
2022/01/21 11:51:27;;;;;;;9.37;8.47;;;5.60;99.90;;;;;;5032958;28;20767;-66
2022/01/21 11:53:58;;;;;;;12.07;8.50;;;5.60;99.90;;;;;;5049593;28;20196;-66
2022/01/21 11:56:34;;;;;;;8.60;8.00;;;5.60;99.90;;;;;;5031060;28;20179;-66
2022/01/21 11:59:11;;;;;;;8.43;7.83;;;5.70;99.90;;;;;;5035665;28;20258;-66
2022/01/21 12:01:46;;;;;;;9.60;8.13;;;5.70;99.90;;;;;;5050908;28;20186;-66
2022/01/21 12:04:12;;;;;;;9.87;8.30;;;5.50;99.90;;;;;;5050606;28;20185;-66
2022/01/21 12:06:38;;;;;;;9.27;8.47;;;5.50;99.90;;;;;;5051008;28;20696;-66
2022/01/21 12:09:08;;;;;;;9.13;8.43;;;5.60;99.90;;;;;;5050597;28;20260;-68
2022/01/21 12:11:37;;;;;;;10.60;8.60;;;5.70;99.90;;;;;;5050314;28;20199;-66
2022/01/21 12:14:23;;;;;;;9.00;8.50;;;5.70;99.90;;;;;;5050866;28;20171;-68
2022/01/21 12:17:11;;;;;;;9.00;8.40;;;5.60;99.90;;;;;;5049166;28;20260;-65
2022/01/21 12:19:40;;;;;;;9.93;9.03;;;5.50;99.90;;;;;;5050316;28;20182;-66
2022/01/21 12:22:18;;;;;;;14.83;8.90;;;5.60;99.90;;;;;;5050598;28;20190;-67
2022/01/21 12:24:54;;;;;;;10.00;9.00;;;5.60;99.90;;;;;;5029636;28;20186;-66
2022/01/21 12:27:23;;;;;;;10.93;9.17;;;5.60;99.90;;;;;;5050694;28;20184;-67
2022/01/21 12:29:49;;;;;;;9.77;9.07;;;5.60;99.90;;;;;;5055274;28;20185;-66
2022/01/21 12:32:33;;;;;;;10.60;9.60;;;5.60;99.90;;;;;;5053817;28;20214;-66
2022/01/21 12:34:59;;;;;;;10.93;9.93;;;5.50;99.90;;;;;;5054489;28;20175;-66
2022/01/21 12:37:37;;;;;;;11.57;10.57;;;5.50;99.90;;;;;;5054472;28;20178;-66
2022/01/21 12:40:04;;;;;;;10.53;9.63;;;5.60;99.90;;;;;;5054395;28;20262;-66
2022/01/21 12:42:37;;;;;;;9.90;9.10;;;5.70;99.90;;;;;;5053713;28;20210;-65
2022/01/21 12:45:08;;;;;;;19.90;10.30;;;5.70;99.90;;;;;;5052395;28;20179;-67
2022/01/21 12:47:43;;;;;;;15.70;9.93;;;5.80;99.90;;;;;;5052944;28;20187;-67
2022/01/21 12:50:21;;;;;;;13.13;10.50;;;5.80;99.90;;;;;;5053775;28;20542;-67
2022/01/21 12:53:14;;;;;;;12.50;10.40;;;5.70;99.90;;;;;;5054084;28;20206;-66
2022/01/21 12:55:55;;;;;;;9.20;8.57;;;5.70;99.90;;;;;;5045190;28;20278;-68
2022/01/21 12:58:28;;;;;;;9.63;8.73;;;5.60;99.90;;;;;;5054381;28;20171;-66
2022/01/21 13:01:04;;;;;;;11.90;9.17;;;5.60;99.90;;;;;;5036812;28;20175;-68
2022/01/21 13:03:38;;;;;;;9.63;8.67;;;5.60;99.90;;;;;;5035503;28;20174;-66
2022/01/21 13:06:19;;;;;;;10.83;8.93;;;5.60;99.90;;;;;;5053891;28;20587;-66
2022/01/21 13:09:11;;;;;;;9.83;8.90;;;5.60;99.90;;;;;;5053300;28;20186;-66
2022/01/21 13:11:41;;;;;;;10.03;8.87;;;5.60;99.90;;;;;;5034871;28;20278;-67
2022/01/21 13:16:54;;;;;;;9.63;8.93;;;5.50;99.90;;;;;;5052429;28;20206;-67
2022/01/21 13:19:19;;;;;;;10.50;9.17;;;5.50;99.90;;;;;;5035789;28;20527;-67
2022/01/21 13:21:46;;;;;;;9.90;9.10;;;5.60;99.90;;;;;;5053653;28;20193;-67
2022/01/21 13:24:29;;;;;;;10.03;9.20;;;5.50;99.90;;;;;;5053770;28;20205;-67
2022/01/21 13:26:56;;;;;;;20.20;12.60;;;5.70;99.90;;;;;;5053363;28;20570;-67
2022/01/21 13:29:37;;;;;;;10.27;9.27;;;5.50;99.90;;;;;;5053250;28;20210;-66
2022/01/21 13:32:05;;;;;;;11.03;9.87;;;5.60;99.90;;;;;;5053185;28;20660;-66
2022/01/21 13:34:36;;;;;;;11.37;10.17;;;5.60;99.90;;;;;;5053889;28;20462;-67
2022/01/21 13:37:04;;;;;;;15.30;11.90;;;5.60;99.90;;;;;;5053426;28;20199;-66
2022/01/21 13:39:37;;;;;;;16.83;9.73;;;5.60;99.90;;;;;;5052350;28;20261;-66
2022/01/21 13:42:10;;;;;;;40.13;20.87;;;5.70;99.90;;;;;;5053053;28;20179;-66
2022/01/21 13:44:42;;;;;;;64.93;26.83;;;5.60;99.90;;;;;;5035070;28;20183;-66
2022/01/21 13:47:40;;;;;;;25.80;13.43;;;5.60;99.90;;;;;;5052879;28;20704;-66
2022/01/21 13:50:14;;;;;;;92.47;31.20;;;5.60;99.90;;;;;;5033574;28;20297;-66
2022/01/21 13:53:00;;;;;;;47.40;21.93;;;5.70;99.90;;;;;;5052903;28;20217;-64
2022/01/21 13:55:29;;;;;;;34.77;21.13;;;5.70;99.90;;;;;;5052938;28;20230;-68